首页
METAR-TAF:

METAR-TAF

机场 :

凱恩斯國際機場

凱恩斯, 澳大利亚

纬度: 16-53S, 经度: 145-45E, 海拔: 3米

当前天气观测

该预报发布于22分钟前的13:00 UTC
风速2节,风向
温度 24°C
湿度 65%
气压 1015 hPa
能见度10公里或以上
多云层高于3600英尺

METAR: YBCS 121300Z AUTO 18002KT 9999 // BKN036 24/17 Q1015 RF00.0/000.0 NOSIG

时间: 23:22 (13:22 UTC)

预报

该预报发布于1小时和58分钟前的11:24 UTC
预报有效从12日的 12点(UTC)到 13日的 12点(UTC)
风速6节,风向南转南东
能见度10公里或以上
少量云层高于2500英尺
从 13日的 0000点(UTC)
风速12节,风向东北
能见度10公里或以上
少量云层高于3000英尺
从 13日的 0800点(UTC)
风速6节,风向南转南东
能见度10公里或以上
少量云层高于2500英尺

TAF: YBCS 121124Z 1212/1312 16006KT 9999 FEW025 FM130000 05012KT 9999 FEW030 FM130800 16006KT 9999 FEW025

超过4000个机场的气象观测和天气预报(METAR&TAF报告)。

可查询的气象台以黄色和红色小点在地图上表示。

将鼠标移到小点上方,可查看气象台名称。

然后点击查看天气观测和预报。

如需切换地图:点击带黑十字的绿色按钮放大地图;点击带横线的绿色按钮缩小地图;或者点击绿色箭头查看邻近地区的地图。


METAR-TAF: